Potosi, Bolivia
Current Conditions -  °F | °C
As of 7:00 PM on Saturday 22 Nov 2014 (Local Time) from SLSU Reporting Station
Scattered Clouds Scattered Clouds  
Wind Chill: 61°   Ceiling: Unl
Heat Index: 61°   Visibility: 6mi
Dew Point: 50°   Wind: 13mph
Humidity: 68%   Direction: 30°NNE
Pressure: 30.3"   Gusts: NA
Location:  19.57°S, 65.75°W
Report Text: SLSU 222300Z 03011KT 9999 SCT020 16/10 Q1026
Loading
Personal Weather Stations






























Interactive Weather Map New forecast layout! Learn more

10-Day Weather Forecast

Advertisements
Track Severe Weather on mobile